sensor_id;sensor_type;location;lat;lon;timestamp;P1;durP1;ratioP1;P2;durP2;ratioP2
19826;SDS011;10074;52.018;4.726;2022-08-19T00:00:08;0.88;;;0.80;;
19826;SDS011;10074;52.018;4.726;2022-08-19T00:05:14;0.93;;;0.80;;
19826;SDS011;10074;52.018;4.726;2022-08-19T00:10:16;0.77;;;0.77;;
19826;SDS011;10074;52.018;4.726;2022-08-19T00:15:18;1.48;;;1.17;;
19826;SDS011;10074;52.018;4.726;2022-08-19T00:20:21;1.77;;;1.33;;
19826;SDS011;10074;52.018;4.726;2022-08-19T00:25:21;3.65;;;2.13;;
19826;SDS011;10074;52.018;4.726;2022-08-19T00:30:22;1.25;;;0.88;;
19826;SDS011;10074;52.018;4.726;2022-08-19T00:35:22;1.02;;;0.90;;
19826;SDS011;10074;52.018;4.726;2022-08-19T00:40:23;0.80;;;0.80;;
19826;SDS011;10074;52.018;4.726;2022-08-19T00:45:26;2.13;;;0.90;;
19826;SDS011;10074;52.018;4.726;2022-08-19T00:50:31;1.27;;;1.17;;
19826;SDS011;10074;52.018;4.726;2022-08-19T00:55:33;1.25;;;1.13;;
19826;SDS011;10074;52.018;4.726;2022-08-19T01:00:34;0.57;;;0.57;;
19826;SDS011;10074;52.018;4.726;2022-08-19T01:05:37;1.25;;;1.15;;
19826;SDS011;10074;52.018;4.726;2022-08-19T01:10:51;1.35;;;0.88;;
19826;SDS011;10074;52.018;4.726;2022-08-19T01:15:58;0.80;;;0.80;;
19826;SDS011;10074;52.018;4.726;2022-08-19T01:21:04;1.08;;;0.82;;
19826;SDS011;10074;52.018;4.726;2022-08-19T01:26:17;1.27;;;1.13;;
19826;SDS011;10074;52.018;4.726;2022-08-19T01:31:22;1.20;;;1.05;;
19826;SDS011;10074;52.018;4.726;2022-08-19T01:36:26;1.08;;;1.00;;
19826;SDS011;10074;52.018;4.726;2022-08-19T01:41:31;1.42;;;1.02;;
19826;SDS011;10074;52.018;4.726;2022-08-19T01:46:32;1.98;;;1.33;;
19826;SDS011;10074;52.018;4.726;2022-08-19T01:51:32;1.35;;;0.90;;
19826;SDS011;10074;52.018;4.726;2022-08-19T01:56:32;1.40;;;1.30;;
19826;SDS011;10074;52.018;4.726;2022-08-19T02:01:33;0.80;;;0.80;;
19826;SDS011;10074;52.018;4.726;2022-08-19T02:06:34;1.02;;;0.73;;
19826;SDS011;10074;52.018;4.726;2022-08-19T02:11:36;3.17;;;1.33;;
19826;SDS011;10074;52.018;4.726;2022-08-19T02:16:38;1.70;;;1.48;;
19826;SDS011;10074;52.018;4.726;2022-08-19T02:21:40;0.98;;;0.80;;
19826;SDS011;10074;52.018;4.726;2022-08-19T02:26:40;1.23;;;1.13;;
19826;SDS011;10074;52.018;4.726;2022-08-19T02:31:41;1.25;;;0.90;;
19826;SDS011;10074;52.018;4.726;2022-08-19T02:36:41;0.73;;;0.73;;
19826;SDS011;10074;52.018;4.726;2022-08-19T02:41:41;0.88;;;0.82;;
19826;SDS011;10074;52.018;4.726;2022-08-19T02:46:42;2.83;;;1.20;;
19826;SDS011;10074;52.018;4.726;2022-08-19T02:51:44;0.77;;;0.75;;
19826;SDS011;10074;52.018;4.726;2022-08-19T02:56:45;0.85;;;0.85;;
19826;SDS011;10074;52.018;4.726;2022-08-19T03:01:46;2.92;;;1.02;;
19826;SDS011;10074;52.018;4.726;2022-08-19T03:06:47;1.60;;;1.00;;
19826;SDS011;10074;52.018;4.726;2022-08-19T03:11:47;2.17;;;1.40;;
19826;SDS011;10074;52.018;4.726;2022-08-19T03:16:50;1.38;;;1.05;;
19826;SDS011;10074;52.018;4.726;2022-08-19T03:21:51;2.60;;;1.58;;
19826;SDS011;10074;52.018;4.726;2022-08-19T03:26:53;1.33;;;1.23;;
19826;SDS011;10074;52.018;4.726;2022-08-19T03:31:59;0.80;;;0.70;;
19826;SDS011;10074;52.018;4.726;2022-08-19T03:37:03;1.20;;;1.10;;
19826;SDS011;10074;52.018;4.726;2022-08-19T03:42:09;0.80;;;0.80;;
19826;SDS011;10074;52.018;4.726;2022-08-19T03:47:10;0.70;;;0.70;;
19826;SDS011;10074;52.018;4.726;2022-08-19T03:52:15;2.53;;;1.20;;
19826;SDS011;10074;52.018;4.726;2022-08-19T03:57:16;1.30;;;1.20;;
19826;SDS011;10074;52.018;4.726;2022-08-19T04:02:16;0.90;;;0.80;;
19826;SDS011;10074;52.018;4.726;2022-08-19T04:07:16;0.93;;;0.93;;
19826;SDS011;10074;52.018;4.726;2022-08-19T04:12:21;1.77;;;1.67;;
19826;SDS011;10074;52.018;4.726;2022-08-19T04:17:21;3.03;;;1.37;;
19826;SDS011;10074;52.018;4.726;2022-08-19T04:22:22;2.65;;;2.15;;
19826;SDS011;10074;52.018;4.726;2022-08-19T04:27:22;1.35;;;1.10;;
19826;SDS011;10074;52.018;4.726;2022-08-19T04:32:22;1.63;;;1.20;;
19826;SDS011;10074;52.018;4.726;2022-08-19T04:37:22;2.80;;;1.47;;
19826;SDS011;10074;52.018;4.726;2022-08-19T04:42:24;3.08;;;1.70;;
19826;SDS011;10074;52.018;4.726;2022-08-19T04:47:40;2.78;;;2.08;;
19826;SDS011;10074;52.018;4.726;2022-08-19T04:52:43;5.10;;;1.73;;
19826;SDS011;10074;52.018;4.726;2022-08-19T04:57:44;3.05;;;1.95;;
19826;SDS011;10074;52.018;4.726;2022-08-19T05:02:44;3.67;;;1.95;;
19826;SDS011;10074;52.018;4.726;2022-08-19T05:07:44;2.83;;;1.85;;
19826;SDS011;10074;52.018;4.726;2022-08-19T05:12:45;3.17;;;1.90;;
19826;SDS011;10074;52.018;4.726;2022-08-19T05:17:45;2.75;;;2.10;;
19826;SDS011;10074;52.018;4.726;2022-08-19T05:23:05;3.33;;;2.33;;
19826;SDS011;10074;52.018;4.726;2022-08-19T05:28:06;3.60;;;2.20;;
19826;SDS011;10074;52.018;4.726;2022-08-19T05:33:06;2.50;;;2.30;;
19826;SDS011;10074;52.018;4.726;2022-08-19T05:38:11;4.47;;;2.85;;
19826;SDS011;10074;52.018;4.726;2022-08-19T05:43:12;3.88;;;2.42;;
19826;SDS011;10074;52.018;4.726;2022-08-19T05:48:15;2.15;;;1.95;;
19826;SDS011;10074;52.018;4.726;2022-08-19T05:53:17;6.20;;;3.83;;
19826;SDS011;10074;52.018;4.726;2022-08-19T05:58:18;6.38;;;3.88;;
19826;SDS011;10074;52.018;4.726;2022-08-19T06:03:18;3.38;;;2.92;;
19826;SDS011;10074;52.018;4.726;2022-08-19T06:08:18;2.97;;;2.67;;
19826;SDS011;10074;52.018;4.726;2022-08-19T06:13:20;3.80;;;3.03;;
19826;SDS011;10074;52.018;4.726;2022-08-19T06:18:21;4.20;;;3.20;;
19826;SDS011;10074;52.018;4.726;2022-08-19T06:23:21;4.68;;;3.50;;
19826;SDS011;10074;52.018;4.726;2022-08-19T06:28:22;5.10;;;3.33;;
19826;SDS011;10074;52.018;4.726;2022-08-19T06:33:23;4.13;;;3.28;;
19826;SDS011;10074;52.018;4.726;2022-08-19T06:38:24;3.97;;;2.80;;
19826;SDS011;10074;52.018;4.726;2022-08-19T06:43:24;4.50;;;2.85;;
19826;SDS011;10074;52.018;4.726;2022-08-19T06:48:24;5.25;;;4.15;;
19826;SDS011;10074;52.018;4.726;2022-08-19T06:53:25;3.42;;;3.13;;
19826;SDS011;10074;52.018;4.726;2022-08-19T06:58:30;4.32;;;3.22;;
19826;SDS011;10074;52.018;4.726;2022-08-19T07:03:34;4.95;;;3.58;;
19826;SDS011;10074;52.018;4.726;2022-08-19T07:08:36;4.22;;;3.08;;
19826;SDS011;10074;52.018;4.726;2022-08-19T07:13:41;3.67;;;2.65;;
19826;SDS011;10074;52.018;4.726;2022-08-19T07:18:43;5.20;;;3.40;;
19826;SDS011;10074;52.018;4.726;2022-08-19T07:23:44;9.57;;;4.38;;
19826;SDS011;10074;52.018;4.726;2022-08-19T07:28:46;5.63;;;4.20;;
19826;SDS011;10074;52.018;4.726;2022-08-19T07:33:48;5.43;;;3.88;;
19826;SDS011;10074;52.018;4.726;2022-08-19T07:38:50;6.53;;;4.32;;
19826;SDS011;10074;52.018;4.726;2022-08-19T07:43:51;6.57;;;4.47;;
19826;SDS011;10074;52.018;4.726;2022-08-19T07:48:52;5.47;;;4.38;;
19826;SDS011;10074;52.018;4.726;2022-08-19T07:53:53;8.25;;;4.45;;
19826;SDS011;10074;52.018;4.726;2022-08-19T07:58:53;4.25;;;3.65;;
19826;SDS011;10074;52.018;4.726;2022-08-19T08:03:54;5.32;;;3.17;;
19826;SDS011;10074;52.018;4.726;2022-08-19T08:09:15;8.95;;;3.58;;
19826;SDS011;10074;52.018;4.726;2022-08-19T08:14:23;5.05;;;3.80;;
19826;SDS011;10074;52.018;4.726;2022-08-19T08:19:28;4.35;;;3.08;;
19826;SDS011;10074;52.018;4.726;2022-08-19T08:24:29;5.70;;;3.17;;
19826;SDS011;10074;52.018;4.726;2022-08-19T08:29:30;4.80;;;3.78;;
19826;SDS011;10074;52.018;4.726;2022-08-19T08:34:31;4.50;;;3.33;;
19826;SDS011;10074;52.018;4.726;2022-08-19T08:39:31;4.40;;;3.63;;
19826;SDS011;10074;52.018;4.726;2022-08-19T08:44:39;4.60;;;4.13;;
19826;SDS011;10074;52.018;4.726;2022-08-19T08:55:14;5.63;;;3.63;;
19826;SDS011;10074;52.018;4.726;2022-08-19T09:00:38;5.20;;;3.10;;
19826;SDS011;10074;52.018;4.726;2022-08-19T09:05:45;7.63;;;4.35;;
19826;SDS011;10074;52.018;4.726;2022-08-19T09:10:54;4.10;;;3.67;;
19826;SDS011;10074;52.018;4.726;2022-08-19T09:16:05;7.38;;;4.03;;
19826;SDS011;10074;52.018;4.726;2022-08-19T09:21:07;6.72;;;4.10;;
19826;SDS011;10074;52.018;4.726;2022-08-19T09:26:14;5.80;;;4.25;;
19826;SDS011;10074;52.018;4.726;2022-08-19T09:31:17;3.80;;;3.00;;
19826;SDS011;10074;52.018;4.726;2022-08-19T09:36:27;6.32;;;3.35;;
19826;SDS011;10074;52.018;4.726;2022-08-19T09:41:29;3.55;;;3.13;;
19826;SDS011;10074;52.018;4.726;2022-08-19T09:46:30;3.65;;;3.30;;
19826;SDS011;10074;52.018;4.726;2022-08-19T09:51:30;3.60;;;3.15;;
19826;SDS011;10074;52.018;4.726;2022-08-19T09:56:31;4.18;;;3.22;;
19826;SDS011;10074;52.018;4.726;2022-08-19T10:01:32;7.32;;;3.28;;
19826;SDS011;10074;52.018;4.726;2022-08-19T10:06:33;4.05;;;3.30;;
19826;SDS011;10074;52.018;4.726;2022-08-19T10:11:34;5.20;;;4.32;;
19826;SDS011;10074;52.018;4.726;2022-08-19T10:16:37;7.32;;;3.78;;
19826;SDS011;10074;52.018;4.726;2022-08-19T10:21:38;5.05;;;2.78;;
19826;SDS011;10074;52.018;4.726;2022-08-19T10:26:40;4.32;;;3.88;;
19826;SDS011;10074;52.018;4.726;2022-08-19T10:31:47;3.35;;;2.50;;
19826;SDS011;10074;52.018;4.726;2022-08-19T10:36:48;5.00;;;3.25;;
19826;SDS011;10074;52.018;4.726;2022-08-19T10:41:49;2.90;;;2.63;;
19826;SDS011;10074;52.018;4.726;2022-08-19T10:46:49;3.20;;;2.78;;
19826;SDS011;10074;52.018;4.726;2022-08-19T10:51:51;5.18;;;3.28;;
19826;SDS011;10074;52.018;4.726;2022-08-19T10:57:10;3.80;;;2.83;;
19826;SDS011;10074;52.018;4.726;2022-08-19T11:02:11;4.72;;;3.13;;
19826;SDS011;10074;52.018;4.726;2022-08-19T11:07:12;2.70;;;2.38;;
19826;SDS011;10074;52.018;4.726;2022-08-19T11:12:13;3.30;;;2.77;;
19826;SDS011;10074;52.018;4.726;2022-08-19T11:17:14;4.43;;;2.50;;
19826;SDS011;10074;52.018;4.726;2022-08-19T11:22:15;2.95;;;2.45;;
19826;SDS011;10074;52.018;4.726;2022-08-19T11:27:15;3.22;;;1.95;;
19826;SDS011;10074;52.018;4.726;2022-08-19T11:32:16;3.05;;;2.55;;
19826;SDS011;10074;52.018;4.726;2022-08-19T11:37:16;3.88;;;2.13;;
19826;SDS011;10074;52.018;4.726;2022-08-19T11:42:16;3.67;;;1.98;;
19826;SDS011;10074;52.018;4.726;2022-08-19T11:47:36;3.15;;;2.17;;
19826;SDS011;10074;52.018;4.726;2022-08-19T11:52:36;2.28;;;1.90;;
19826;SDS011;10074;52.018;4.726;2022-08-19T11:57:36;3.08;;;2.17;;
19826;SDS011;10074;52.018;4.726;2022-08-19T12:02:37;2.08;;;1.58;;
19826;SDS011;10074;52.018;4.726;2022-08-19T12:07:37;1.98;;;1.85;;
19826;SDS011;10074;52.018;4.726;2022-08-19T12:12:37;2.72;;;2.08;;
19826;SDS011;10074;52.018;4.726;2022-08-19T12:17:42;1.65;;;1.25;;
19826;SDS011;10074;52.018;4.726;2022-08-19T12:22:42;2.97;;;2.00;;
19826;SDS011;10074;52.018;4.726;2022-08-19T12:27:43;1.33;;;1.13;;
19826;SDS011;10074;52.018;4.726;2022-08-19T12:32:43;2.50;;;1.60;;
19826;SDS011;10074;52.018;4.726;2022-08-19T12:37:44;2.55;;;1.33;;
19826;SDS011;10074;52.018;4.726;2022-08-19T12:42:45;2.90;;;1.60;;
19826;SDS011;10074;52.018;4.726;2022-08-19T12:47:45;4.40;;;2.10;;
19826;SDS011;10074;52.018;4.726;2022-08-19T12:52:46;3.33;;;1.35;;
19826;SDS011;10074;52.018;4.726;2022-08-19T12:57:48;1.92;;;1.73;;
19826;SDS011;10074;52.018;4.726;2022-08-19T13:02:49;1.98;;;1.30;;
19826;SDS011;10074;52.018;4.726;2022-08-19T13:07:53;3.70;;;2.33;;
19826;SDS011;10074;52.018;4.726;2022-08-19T13:12:56;0.93;;;0.93;;
19826;SDS011;10074;52.018;4.726;2022-08-19T13:17:59;1.35;;;1.02;;
19826;SDS011;10074;52.018;4.726;2022-08-19T13:22:59;6.13;;;2.08;;
19826;SDS011;10074;52.018;4.726;2022-08-19T13:28:00;1.05;;;0.95;;
19826;SDS011;10074;52.018;4.726;2022-08-19T13:33:00;3.95;;;1.65;;
19826;SDS011;10074;52.018;4.726;2022-08-19T13:38:15;2.05;;;0.80;;
19826;SDS011;10074;52.018;4.726;2022-08-19T13:43:18;1.50;;;1.20;;
19826;SDS011;10074;52.018;4.726;2022-08-19T13:48:19;1.38;;;1.27;;
19826;SDS011;10074;52.018;4.726;2022-08-19T13:53:20;0.85;;;0.85;;
19826;SDS011;10074;52.018;4.726;2022-08-19T13:58:20;1.80;;;1.10;;
19826;SDS011;10074;52.018;4.726;2022-08-19T14:03:20;1.27;;;1.17;;
19826;SDS011;10074;52.018;4.726;2022-08-19T14:08:21;1.60;;;1.50;;
19826;SDS011;10074;52.018;4.726;2022-08-19T14:13:22;1.42;;;1.20;;
19826;SDS011;10074;52.018;4.726;2022-08-19T14:18:23;1.30;;;1.00;;
19826;SDS011;10074;52.018;4.726;2022-08-19T14:23:24;1.38;;;1.27;;
19826;SDS011;10074;52.018;4.726;2022-08-19T14:28:25;1.20;;;1.00;;
19826;SDS011;10074;52.018;4.726;2022-08-19T14:33:25;0.73;;;0.73;;
19826;SDS011;10074;52.018;4.726;2022-08-19T14:38:26;2.75;;;1.23;;
19826;SDS011;10074;52.018;4.726;2022-08-19T14:43:29;2.67;;;1.05;;
19826;SDS011;10074;52.018;4.726;2022-08-19T14:48:29;1.45;;;1.33;;
19826;SDS011;10074;52.018;4.726;2022-08-19T14:53:30;1.40;;;1.27;;
19826;SDS011;10074;52.018;4.726;2022-08-19T14:58:30;1.35;;;0.90;;
19826;SDS011;10074;52.018;4.726;2022-08-19T15:03:30;1.00;;;0.90;;
19826;SDS011;10074;52.018;4.726;2022-08-19T15:08:32;1.30;;;0.77;;
19826;SDS011;10074;52.018;4.726;2022-08-19T15:13:37;1.33;;;1.23;;
19826;SDS011;10074;52.018;4.726;2022-08-19T15:18:37;1.40;;;1.15;;
19826;SDS011;10074;52.018;4.726;2022-08-19T15:23:38;0.85;;;0.85;;
19826;SDS011;10074;52.018;4.726;2022-08-19T15:28:39;1.27;;;0.85;;
19826;SDS011;10074;52.018;4.726;2022-08-19T15:33:39;1.15;;;0.98;;
19826;SDS011;10074;52.018;4.726;2022-08-19T15:38:43;1.13;;;1.02;;
19826;SDS011;10074;52.018;4.726;2022-08-19T15:43:44;1.15;;;0.85;;
19826;SDS011;10074;52.018;4.726;2022-08-19T15:48:44;0.68;;;0.68;;
19826;SDS011;10074;52.018;4.726;2022-08-19T15:53:45;2.30;;;1.38;;
19826;SDS011;10074;52.018;4.726;2022-08-19T15:58:45;2.10;;;1.38;;
19826;SDS011;10074;52.018;4.726;2022-08-19T16:04:04;1.17;;;0.73;;
19826;SDS011;10074;52.018;4.726;2022-08-19T16:09:24;1.02;;;0.93;;
19826;SDS011;10074;52.018;4.726;2022-08-19T16:14:28;2.33;;;1.23;;
19826;SDS011;10074;52.018;4.726;2022-08-19T16:19:31;1.15;;;1.05;;
19826;SDS011;10074;52.018;4.726;2022-08-19T16:24:32;0.82;;;0.63;;
19826;SDS011;10074;52.018;4.726;2022-08-19T16:29:32;3.28;;;0.60;;
19826;SDS011;10074;52.018;4.726;2022-08-19T16:34:37;0.60;;;0.60;;
19826;SDS011;10074;52.018;4.726;2022-08-19T16:39:39;0.98;;;0.80;;
19826;SDS011;10074;52.018;4.726;2022-08-19T16:44:41;0.90;;;0.60;;
19826;SDS011;10074;52.018;4.726;2022-08-19T16:49:43;1.17;;;0.47;;
19826;SDS011;10074;52.018;4.726;2022-08-19T16:54:44;0.95;;;0.77;;
19826;SDS011;10074;52.018;4.726;2022-08-19T16:59:44;0.93;;;0.63;;
19826;SDS011;10074;52.018;4.726;2022-08-19T17:04:45;0.60;;;0.50;;
19826;SDS011;10074;52.018;4.726;2022-08-19T17:09:48;0.93;;;0.90;;
19826;SDS011;10074;52.018;4.726;2022-08-19T17:14:49;0.50;;;0.50;;
19826;SDS011;10074;52.018;4.726;2022-08-19T17:19:49;5.93;;;1.13;;
19826;SDS011;10074;52.018;4.726;2022-08-19T17:24:50;2.97;;;1.13;;
19826;SDS011;10074;52.018;4.726;2022-08-19T17:29:50;0.45;;;0.45;;
19826;SDS011;10074;52.018;4.726;2022-08-19T17:34:51;0.68;;;0.30;;
19826;SDS011;10074;52.018;4.726;2022-08-19T17:39:53;0.75;;;0.50;;
19826;SDS011;10074;52.018;4.726;2022-08-19T17:44:53;1.00;;;0.85;;
19826;SDS011;10074;52.018;4.726;2022-08-19T17:49:58;0.43;;;0.25;;
19826;SDS011;10074;52.018;4.726;2022-08-19T17:54:58;0.68;;;0.50;;
19826;SDS011;10074;52.018;4.726;2022-08-19T17:59:59;3.65;;;1.48;;
19826;SDS011;10074;52.018;4.726;2022-08-19T18:04:59;0.40;;;0.40;;
19826;SDS011;10074;52.018;4.726;2022-08-19T18:10:00;0.30;;;0.30;;
19826;SDS011;10074;52.018;4.726;2022-08-19T18:15:01;0.70;;;0.70;;
19826;SDS011;10074;52.018;4.726;2022-08-19T18:20:07;0.90;;;0.80;;
19826;SDS011;10074;52.018;4.726;2022-08-19T18:25:14;0.65;;;0.47;;
19826;SDS011;10074;52.018;4.726;2022-08-19T18:30:18;0.40;;;0.40;;
19826;SDS011;10074;52.018;4.726;2022-08-19T18:35:21;0.52;;;0.40;;
19826;SDS011;10074;52.018;4.726;2022-08-19T18:40:24;0.80;;;0.40;;
19826;SDS011;10074;52.018;4.726;2022-08-19T18:45:44;1.00;;;0.50;;
19826;SDS011;10074;52.018;4.726;2022-08-19T18:51:05;0.50;;;0.50;;
19826;SDS011;10074;52.018;4.726;2022-08-19T18:56:06;0.75;;;0.73;;
19826;SDS011;10074;52.018;4.726;2022-08-19T19:06:17;0.57;;;0.50;;
19826;SDS011;10074;52.018;4.726;2022-08-19T19:11:28;0.63;;;0.63;;
19826;SDS011;10074;52.018;4.726;2022-08-19T19:16:33;0.57;;;0.30;;
19826;SDS011;10074;52.018;4.726;2022-08-19T19:21:34;0.30;;;0.30;;
19826;SDS011;10074;52.018;4.726;2022-08-19T19:26:34;0.47;;;0.43;;
19826;SDS011;10074;52.018;4.726;2022-08-19T19:31:36;0.77;;;0.30;;
19826;SDS011;10074;52.018;4.726;2022-08-19T19:36:36;1.27;;;1.05;;
19826;SDS011;10074;52.018;4.726;2022-08-19T19:41:37;1.20;;;0.50;;
19826;SDS011;10074;52.018;4.726;2022-08-19T19:46:38;0.93;;;0.75;;
19826;SDS011;10074;52.018;4.726;2022-08-19T19:51:41;0.55;;;0.50;;
19826;SDS011;10074;52.018;4.726;2022-08-19T19:56:41;1.52;;;0.47;;
19826;SDS011;10074;52.018;4.726;2022-08-19T20:01:43;0.43;;;0.40;;
19826;SDS011;10074;52.018;4.726;2022-08-19T20:06:45;0.20;;;0.20;;
19826;SDS011;10074;52.018;4.726;2022-08-19T20:11:47;1.33;;;0.60;;
19826;SDS011;10074;52.018;4.726;2022-08-19T20:16:50;0.40;;;0.40;;
19826;SDS011;10074;52.018;4.726;2022-08-19T20:21:52;0.63;;;0.45;;
19826;SDS011;10074;52.018;4.726;2022-08-19T20:26:53;1.27;;;1.15;;
19826;SDS011;10074;52.018;4.726;2022-08-19T20:31:53;0.80;;;0.40;;
19826;SDS011;10074;52.018;4.726;2022-08-19T20:36:54;0.38;;;0.32;;
19826;SDS011;10074;52.018;4.726;2022-08-19T20:41:54;0.75;;;0.70;;
19826;SDS011;10074;52.018;4.726;2022-08-19T20:46:56;0.68;;;0.60;;
19826;SDS011;10074;52.018;4.726;2022-08-19T20:51:56;0.55;;;0.55;;
19826;SDS011;10074;52.018;4.726;2022-08-19T20:56:57;0.30;;;0.30;;
19826;SDS011;10074;52.018;4.726;2022-08-19T21:01:57;0.73;;;0.40;;
19826;SDS011;10074;52.018;4.726;2022-08-19T21:06:58;0.40;;;0.35;;
19826;SDS011;10074;52.018;4.726;2022-08-19T21:11:58;0.50;;;0.40;;
19826;SDS011;10074;52.018;4.726;2022-08-19T21:16:59;0.75;;;0.75;;
19826;SDS011;10074;52.018;4.726;2022-08-19T21:22:00;0.70;;;0.70;;
19826;SDS011;10074;52.018;4.726;2022-08-19T21:27:01;0.68;;;0.38;;
19826;SDS011;10074;52.018;4.726;2022-08-19T21:32:02;0.73;;;0.70;;
19826;SDS011;10074;52.018;4.726;2022-08-19T21:37:03;0.93;;;0.60;;
19826;SDS011;10074;52.018;4.726;2022-08-19T21:42:04;0.82;;;0.80;;
19826;SDS011;10074;52.018;4.726;2022-08-19T21:47:04;0.63;;;0.63;;
19826;SDS011;10074;52.018;4.726;2022-08-19T21:52:05;0.63;;;0.63;;
19826;SDS011;10074;52.018;4.726;2022-08-19T21:57:06;1.00;;;0.40;;
19826;SDS011;10074;52.018;4.726;2022-08-19T22:02:06;0.53;;;0.50;;
19826;SDS011;10074;52.018;4.726;2022-08-19T22:07:10;1.00;;;0.70;;
19826;SDS011;10074;52.018;4.726;2022-08-19T22:12:29;0.90;;;0.60;;
19826;SDS011;10074;52.018;4.726;2022-08-19T22:17:31;0.95;;;0.70;;
19826;SDS011;10074;52.018;4.726;2022-08-19T22:22:32;1.27;;;0.90;;
19826;SDS011;10074;52.018;4.726;2022-08-19T22:27:33;1.17;;;0.60;;
19826;SDS011;10074;52.018;4.726;2022-08-19T22:32:34;0.55;;;0.47;;
19826;SDS011;10074;52.018;4.726;2022-08-19T22:37:35;0.50;;;0.50;;
19826;SDS011;10074;52.018;4.726;2022-08-19T22:42:35;0.70;;;0.50;;
19826;SDS011;10074;52.018;4.726;2022-08-19T22:47:36;0.68;;;0.50;;
19826;SDS011;10074;52.018;4.726;2022-08-19T22:52:37;1.05;;;0.85;;
19826;SDS011;10074;52.018;4.726;2022-08-19T22:57:38;0.60;;;0.45;;
19826;SDS011;10074;52.018;4.726;2022-08-19T23:02:39;0.50;;;0.50;;
19826;SDS011;10074;52.018;4.726;2022-08-19T23:07:39;1.30;;;0.60;;
19826;SDS011;10074;52.018;4.726;2022-08-19T23:12:41;1.02;;;0.73;;
19826;SDS011;10074;52.018;4.726;2022-08-19T23:17:44;0.82;;;0.70;;
19826;SDS011;10074;52.018;4.726;2022-08-19T23:22:45;0.47;;;0.47;;
19826;SDS011;10074;52.018;4.726;2022-08-19T23:27:51;1.00;;;0.40;;
19826;SDS011;10074;52.018;4.726;2022-08-19T23:38:28;0.95;;;0.63;;
19826;SDS011;10074;52.018;4.726;2022-08-19T23:43:31;0.73;;;0.50;;
19826;SDS011;10074;52.018;4.726;2022-08-19T23:48:32;0.90;;;0.52;;
19826;SDS011;10074;52.018;4.726;2022-08-19T23:53:34;1.92;;;0.82;;
19826;SDS011;10074;52.018;4.726;2022-08-19T23:58:36;0.50;;;0.47;;
